Time;durP1;ratioP1;P1;durP2;ratioP2;P2;SDS_P1;SDS_P2;PMS_P1;PMS_P2;Temp;Humidity;BMP_temperature;BMP_pressure;BME280_temperature;BME280_humidity;BME280_pressure;Samples;Min_cycle;Max_cycle;Signal;HPM_P1;HPM_P2
2024/03/21 00:01:51;;;;;;;9.13;7.40;;;;;;;;;;6245607;23;20016;-94
2024/03/21 00:04:18;;;;;;;10.00;7.10;;;;;;;;;;6219846;23;20055;-94
2024/03/21 00:06:44;;;;;;;9.15;6.90;;;;;;;;;;6220017;23;20020;-94
2024/03/21 00:09:14;;;;;;;7.90;6.15;;;;;;;;;;6219903;23;20021;-94
2024/03/21 00:11:40;;;;;;;14.10;7.00;;;;;;;;;;6245733;23;20031;-94
2024/03/21 00:14:06;;;;;;;9.05;6.53;;;;;;;;;;6220081;23;20096;-94
2024/03/21 00:16:33;;;;;;;7.85;6.60;;;;;;;;;;6219978;23;20027;-94
2024/03/21 00:18:59;;;;;;;8.38;6.22;;;;;;;;;;6220158;23;20020;-95
2024/03/21 00:21:25;;;;;;;7.82;5.93;;;;;;;;;;6245276;23;20016;-95
2024/03/21 00:23:51;;;;;;;6.65;6.03;;;;;;;;;;6245427;23;20024;-95
2024/03/21 00:26:17;;;;;;;12.30;6.60;;;;;;;;;;6245603;23;20020;-95
2024/03/21 00:28:45;;;;;;;6.30;5.63;;;;;;;;;;6220136;23;20028;-95
2024/03/21 00:31:12;;;;;;;9.02;6.60;;;;;;;;;;6246064;23;20023;-93
2024/03/21 00:33:38;;;;;;;8.80;6.28;;;;;;;;;;6231858;23;20018;-94
2024/03/21 00:36:04;;;;;;;7.50;6.13;;;;;;;;;;6271577;23;20068;-95
2024/03/21 00:38:31;;;;;;;8.73;7.00;;;;;;;;;;6220001;23;20047;-94
2024/03/21 00:40:57;;;;;;;8.05;6.15;;;;;;;;;;6219904;23;20039;-95
2024/03/21 00:43:24;;;;;;;12.05;7.47;;;;;;;;;;6220055;23;20468;-94
2024/03/21 00:45:51;;;;;;;8.57;6.82;;;;;;;;;;6245376;23;20047;-94
2024/03/21 00:48:17;;;;;;;7.80;6.28;;;;;;;;;;6246359;23;20016;-94
2024/03/21 00:50:44;;;;;;;7.30;6.18;;;;;;;;;;6221910;23;20054;-93
2024/03/21 00:53:10;;;;;;;12.20;6.80;;;;;;;;;;6222008;23;20047;-94
2024/03/21 00:55:36;;;;;;;9.00;6.97;;;;;;;;;;6247447;23;20082;-94
2024/03/21 00:58:03;;;;;;;9.35;6.68;;;;;;;;;;6246271;23;20027;-94
2024/03/21 01:00:30;;;;;;;8.90;7.15;;;;;;;;;;6247173;23;20016;-94
2024/03/21 01:02:56;;;;;;;8.27;6.63;;;;;;;;;;6221751;23;20024;-94
2024/03/21 01:05:23;;;;;;;12.23;7.30;;;;;;;;;;6246812;23;20192;-94
2024/03/21 01:07:49;;;;;;;8.20;6.35;;;;;;;;;;6246544;23;20028;-94
2024/03/21 01:10:15;;;;;;;8.35;6.28;;;;;;;;;;6221726;23;20380;-93
2024/03/21 01:12:43;;;;;;;10.45;7.15;;;;;;;;;;6247104;23;20098;-94
2024/03/21 01:15:10;;;;;;;7.13;6.43;;;;;;;;;;6221672;23;20016;-94
2024/03/21 01:17:36;;;;;;;6.75;5.75;;;;;;;;;;6221510;23;20074;-93
2024/03/21 01:20:03;;;;;;;7.28;6.47;;;;;;;;;;6221817;23;20449;-94
2024/03/21 01:22:30;;;;;;;11.25;6.65;;;;;;;;;;6221546;23;20024;-94
2024/03/21 01:24:56;;;;;;;9.23;6.45;;;;;;;;;;6247170;23;20039;-94
2024/03/21 01:27:22;;;;;;;10.50;7.07;;;;;;;;;;6221570;23;20020;-95
2024/03/21 01:29:48;;;;;;;14.20;6.00;;;;;;;;;;6247420;23;20020;-94
2024/03/21 01:32:15;;;;;;;9.05;6.75;;;;;;;;;;6221315;23;20473;-94
2024/03/21 01:34:41;;;;;;;10.65;7.13;;;;;;;;;;6221424;23;20467;-94
2024/03/21 01:37:07;;;;;;;7.88;6.68;;;;;;;;;;6246537;23;20019;-94
2024/03/21 01:39:33;;;;;;;9.15;6.45;;;;;;;;;;6246802;23;20047;-94
2024/03/21 01:42:00;;;;;;;8.60;6.00;;;;;;;;;;6221793;23;20020;-95
2024/03/21 01:44:26;;;;;;;8.85;6.15;;;;;;;;;;6221882;23;20022;-95
2024/03/21 01:46:52;;;;;;;8.13;6.47;;;;;;;;;;6247029;23;20023;-94
2024/03/21 01:49:19;;;;;;;9.00;6.45;;;;;;;;;;6240719;23;20027;-94
2024/03/21 01:51:46;;;;;;;8.98;6.60;;;;;;;;;;6271027;22;20267;-95
2024/03/21 01:54:17;;;;;;;9.80;6.95;;;;;;;;;;6221412;23;20028;-94
2024/03/21 01:56:44;;;;;;;9.52;6.40;;;;;;;;;;6221299;23;20026;-95
2024/03/21 01:59:11;;;;;;;10.40;6.97;;;;;;;;;;6221512;23;20024;-95
2024/03/21 02:01:37;;;;;;;14.00;7.00;;;;;;;;;;6246613;23;20016;-95
2024/03/21 02:04:05;;;;;;;9.65;7.03;;;;;;;;;;6221106;23;20086;-95
2024/03/21 02:06:36;;;;;;;13.20;7.20;;;;;;;;;;6247218;23;20345;-95
2024/03/21 02:09:06;;;;;;;7.97;6.00;;;;;;;;;;6221404;23;20024;-94
2024/03/21 02:11:33;;;;;;;10.52;6.82;;;;;;;;;;6221490;23;20345;-94
2024/03/21 02:13:59;;;;;;;9.73;7.18;;;;;;;;;;6221212;23;20503;-94
2024/03/21 02:16:26;;;;;;;9.45;6.45;;;;;;;;;;6221078;23;20066;-94
2024/03/21 02:18:53;;;;;;;7.85;6.43;;;;;;;;;;6246163;23;20031;-94
2024/03/21 02:24:04;;;;;;;9.98;6.63;;;;;;;;;;6246734;23;20024;-94
2024/03/21 02:26:30;;;;;;;9.52;6.47;;;;;;;;;;6220976;23;20457;-95
2024/03/21 02:28:56;;;;;;;10.70;7.80;;;;;;;;;;6246401;23;20023;-94
2024/03/21 02:31:23;;;;;;;11.15;7.50;;;;;;;;;;6220910;23;20020;-94
2024/03/21 02:33:50;;;;;;;10.57;6.78;;;;;;;;;;6221400;23;20024;-94
2024/03/21 02:36:16;;;;;;;12.25;7.63;;;;;;;;;;6220720;23;20027;-94
2024/03/21 02:38:43;;;;;;;12.32;7.63;;;;;;;;;;6246184;23;20047;-94
2024/03/21 02:41:09;;;;;;;13.35;7.45;;;;;;;;;;6219353;23;20047;-95
2024/03/21 02:43:36;;;;;;;9.32;6.95;;;;;;;;;;6244520;23;20024;-94
2024/03/21 02:46:02;;;;;;;11.45;7.45;;;;;;;;;;6245989;23;20027;-96
2024/03/21 02:48:29;;;;;;;7.93;6.68;;;;;;;;;;6220820;23;20016;-94
2024/03/21 02:50:55;;;;;;;8.88;7.55;;;;;;;;;;6246341;23;20020;-95
2024/03/21 02:53:21;;;;;;;9.77;7.35;;;;;;;;;;6246020;23;20024;-94
2024/03/21 02:55:47;;;;;;;16.45;8.00;;;;;;;;;;6220724;23;20456;-94
2024/03/21 02:58:14;;;;;;;11.75;8.43;;;;;;;;;;6244739;23;20488;-95
2024/03/21 03:00:40;;;;;;;13.32;7.47;;;;;;;;;;6220882;23;20468;-94
2024/03/21 03:03:07;;;;;;;13.32;8.30;;;;;;;;;;6223154;23;20030;-94
2024/03/21 03:05:39;;;;;;;12.68;8.63;;;;;;;;;;6246807;23;20060;-94
2024/03/21 03:08:05;;;;;;;11.77;8.67;;;;;;;;;;6232941;23;20020;-94
2024/03/21 03:10:32;;;;;;;12.68;8.75;;;;;;;;;;6220364;23;20020;-95
2024/03/21 03:12:58;;;;;;;11.88;8.02;;;;;;;;;;6220771;23;20024;-95
2024/03/21 03:15:24;;;;;;;10.55;8.25;;;;;;;;;;6222869;23;20449;-95
2024/03/21 03:17:50;;;;;;;12.32;8.85;;;;;;;;;;6245581;23;20020;-94
2024/03/21 03:20:17;;;;;;;12.35;8.20;;;;;;;;;;6245769;23;20027;-94
2024/03/21 03:22:43;;;;;;;13.82;8.55;;;;;;;;;;6246138;23;20027;-95
2024/03/21 03:25:09;;;;;;;13.23;8.88;;;;;;;;;;6220730;23;20020;-94
2024/03/21 03:27:36;;;;;;;12.98;8.35;;;;;;;;;;6245581;23;20353;-95
2024/03/21 03:30:03;;;;;;;10.60;7.97;;;;;;;;;;6220705;23;20027;-94
2024/03/21 03:32:32;;;;;;;10.43;7.82;;;;;;;;;;6220641;23;20024;-95
2024/03/21 03:37:44;;;;;;;13.85;8.15;;;;;;;;;;6245134;23;20360;-94
2024/03/21 03:40:10;;;;;;;10.20;8.00;;;;;;;;;;6220080;23;20020;-94
2024/03/21 03:42:37;;;;;;;13.57;8.55;;;;;;;;;;6245712;23;20020;-94
2024/03/21 03:45:04;;;;;;;15.50;9.88;;;;;;;;;;6220359;23;20021;-94
2024/03/21 03:47:31;;;;;;;14.80;9.40;;;;;;;;;;6245961;23;20020;-94
2024/03/21 03:49:58;;;;;;;11.07;8.15;;;;;;;;;;6220432;23;20020;-94
2024/03/21 03:52:25;;;;;;;15.32;9.18;;;;;;;;;;6245505;23;20020;-94
2024/03/21 03:54:51;;;;;;;14.65;9.23;;;;;;;;;;6245391;23;20020;-95
2024/03/21 03:57:17;;;;;;;19.40;9.95;;;;;;;;;;6245473;23;20349;-95
2024/03/21 03:59:43;;;;;;;18.90;8.60;;;;;;;;;;6220249;23;20070;-94
2024/03/21 04:02:09;;;;;;;11.57;8.77;;;;;;;;;;6245537;23;20016;-94
2024/03/21 04:04:36;;;;;;;10.73;8.18;;;;;;;;;;6220480;23;20020;-94
2024/03/21 04:07:02;;;;;;;9.85;7.53;;;;;;;;;;6220515;23;20091;-94
2024/03/21 04:09:30;;;;;;;10.15;8.10;;;;;;;;;;6220614;23;20024;-94
2024/03/21 04:11:56;;;;;;;10.15;8.07;;;;;;;;;;6246360;23;20453;-94
2024/03/21 04:14:22;;;;;;;9.55;7.65;;;;;;;;;;6246406;23;20020;-95
2024/03/21 04:16:49;;;;;;;9.48;7.35;;;;;;;;;;6222296;23;20020;-94
2024/03/21 04:19:15;;;;;;;12.07;7.38;;;;;;;;;;6235429;23;20061;-93
2024/03/21 04:21:41;;;;;;;13.70;8.35;;;;;;;;;;6247859;23;20055;-94
2024/03/21 04:24:07;;;;;;;10.65;8.65;;;;;;;;;;6224994;23;20061;-94
2024/03/21 04:26:34;;;;;;;13.93;9.93;;;;;;;;;;6246646;23;20027;-94
2024/03/21 04:29:00;;;;;;;12.90;8.98;;;;;;;;;;6220098;23;20024;-95
2024/03/21 04:31:26;;;;;;;14.65;9.20;;;;;;;;;;6220331;23;20023;-95
2024/03/21 04:33:53;;;;;;;12.25;8.48;;;;;;;;;;6220512;23;20042;-95
2024/03/21 04:36:19;;;;;;;11.52;8.70;;;;;;;;;;6247183;23;20024;-94
2024/03/21 04:38:45;;;;;;;12.68;8.90;;;;;;;;;;6224654;23;20027;-95
2024/03/21 04:41:11;;;;;;;16.05;9.05;;;;;;;;;;6246250;23;20016;-94
2024/03/21 04:43:37;;;;;;;14.98;9.15;;;;;;;;;;6220505;23;20020;-94
2024/03/21 04:46:04;;;;;;;12.77;9.05;;;;;;;;;;6246133;23;20026;-94
2024/03/21 04:48:30;;;;;;;13.55;8.60;;;;;;;;;;6246054;23;20020;-95
2024/03/21 04:50:56;;;;;;;10.52;7.97;;;;;;;;;;6246145;23;20020;-94
2024/03/21 04:53:24;;;;;;;14.05;7.70;;;;;;;;;;6220678;23;20020;-95
2024/03/21 04:55:50;;;;;;;11.73;7.97;;;;;;;;;;6246534;23;20020;-94
2024/03/21 04:58:16;;;;;;;13.38;8.30;;;;;;;;;;6246926;23;20505;-94
2024/03/21 05:00:42;;;;;;;10.85;8.25;;;;;;;;;;6220242;23;20452;-96
2024/03/21 05:03:09;;;;;;;15.82;8.50;;;;;;;;;;6245977;23;20028;-94
2024/03/21 05:05:35;;;;;;;11.45;9.25;;;;;;;;;;6246394;23;20016;-94
2024/03/21 05:08:02;;;;;;;13.35;8.25;;;;;;;;;;6223861;23;20020;-94
2024/03/21 05:10:28;;;;;;;11.32;8.77;;;;;;;;;;6220762;23;20046;-94
2024/03/21 05:12:55;;;;;;;14.98;8.57;;;;;;;;;;6219570;23;20074;-94
2024/03/21 05:15:21;;;;;;;14.52;9.13;;;;;;;;;;6220049;23;20020;-94
2024/03/21 05:17:47;;;;;;;19.48;8.68;;;;;;;;;;6219560;23;20027;-94
2024/03/21 05:20:13;;;;;;;11.77;8.05;;;;;;;;;;6220376;23;20449;-95
2024/03/21 05:22:40;;;;;;;14.30;8.30;;;;;;;;;;6220063;23;20027;-95
2024/03/21 05:25:07;;;;;;;14.95;9.52;;;;;;;;;;6220006;23;20027;-94
2024/03/21 05:27:33;;;;;;;10.98;8.98;;;;;;;;;;6220310;23;20519;-95
2024/03/21 05:30:00;;;;;;;13.40;8.88;;;;;;;;;;6245578;23;20016;-94
2024/03/21 05:32:26;;;;;;;15.13;9.77;;;;;;;;;;6221095;23;20021;-94
2024/03/21 05:34:52;;;;;;;15.40;9.93;;;;;;;;;;6242187;23;20004;-94
2024/03/21 05:37:18;;;;;;;22.00;11.77;;;;;;;;;;6238560;23;20345;-94
2024/03/21 05:39:47;;;;;;;22.30;12.98;;;;;;;;;;6247342;23;20349;-94
2024/03/21 05:42:16;;;;;;;18.15;11.35;;;;;;;;;;6221615;23;20016;-94
2024/03/21 05:44:43;;;;;;;21.13;12.35;;;;;;;;;;6221131;23;20043;-94
2024/03/21 05:47:22;;;;;;;25.33;13.90;;;;;;;;;;6221333;23;20051;-94
2024/03/21 05:49:49;;;;;;;23.05;14.13;;;;;;;;;;6221604;23;20020;-94
2024/03/21 05:52:15;;;;;;;29.48;18.60;;;;;;;;;;6246736;23;20016;-94
2024/03/21 05:54:42;;;;;;;21.20;13.10;;;;;;;;;;6221381;23;20028;-94
2024/03/21 05:57:08;;;;;;;38.05;19.48;;;;;;;;;;6221446;23;20023;-94
2024/03/21 05:59:34;;;;;;;38.67;21.70;;;;;;;;;;6221216;23;20034;-94
2024/03/21 06:02:01;;;;;;;33.13;18.63;;;;;;;;;;6246454;23;20031;-94
2024/03/21 06:04:27;;;;;;;34.60;21.02;;;;;;;;;;6221581;23;20020;-94
2024/03/21 06:06:54;;;;;;;42.70;23.42;;;;;;;;;;6248121;23;20024;-95
2024/03/21 06:09:23;;;;;;;47.20;25.92;;;;;;;;;;6225083;23;20031;-95
2024/03/21 06:11:50;;;;;;;35.80;21.92;;;;;;;;;;6223038;23;20067;-95
2024/03/21 06:14:16;;;;;;;36.45;19.35;;;;;;;;;;6222370;23;20020;-95
2024/03/21 06:16:42;;;;;;;41.92;20.20;;;;;;;;;;6221643;23;20016;-94
2024/03/21 06:19:08;;;;;;;39.65;20.10;;;;;;;;;;6221301;23;20020;-95
2024/03/21 06:21:35;;;;;;;42.05;24.25;;;;;;;;;;6246775;23;20016;-94
2024/03/21 06:24:01;;;;;;;34.60;22.15;;;;;;;;;;6221247;23;20059;-94
2024/03/21 06:26:27;;;;;;;49.13;25.90;;;;;;;;;;6221052;23;20017;-94
2024/03/21 06:28:54;;;;;;;50.08;20.00;;;;;;;;;;6246039;23;20452;-94
2024/03/21 06:31:20;;;;;;;39.88;22.80;;;;;;;;;;6221512;23;20024;-94
2024/03/21 06:33:46;;;;;;;47.15;25.52;;;;;;;;;;6247144;23;20027;-94
2024/03/21 06:36:13;;;;;;;47.70;23.60;;;;;;;;;;6221947;23;20341;-93
2024/03/21 06:38:39;;;;;;;64.25;28.25;;;;;;;;;;6221969;23;20027;-94
2024/03/21 06:41:05;;;;;;;43.00;22.48;;;;;;;;;;6221226;23;20027;-93
2024/03/21 06:43:31;;;;;;;43.55;24.33;;;;;;;;;;6245854;23;20050;-93
2024/03/21 06:45:58;;;;;;;46.13;25.48;;;;;;;;;;6221404;23;20020;-94
2024/03/21 06:48:24;;;;;;;34.75;20.35;;;;;;;;;;6257709;22;20024;-92
2024/03/21 06:50:51;;;;;;;29.27;18.45;;;;;;;;;;6245116;23;20030;-94
2024/03/21 06:53:17;;;;;;;25.92;15.63;;;;;;;;;;6225798;23;20081;-94
2024/03/21 06:55:44;;;;;;;32.33;15.05;;;;;;;;;;6220961;23;20028;-94
2024/03/21 06:58:10;;;;;;;25.23;12.68;;;;;;;;;;6220804;23;20028;-94
2024/03/21 07:00:36;;;;;;;23.00;11.70;;;;;;;;;;6221781;23;20020;-93
2024/03/21 07:03:04;;;;;;;19.20;10.82;;;;;;;;;;6221055;23;20023;-94
2024/03/21 07:05:30;;;;;;;19.42;10.23;;;;;;;;;;6246547;23;20016;-94
2024/03/21 07:07:57;;;;;;;18.00;10.25;;;;;;;;;;6246050;23;20020;-94
2024/03/21 07:10:24;;;;;;;15.73;9.43;;;;;;;;;;6221352;23;20032;-94
2024/03/21 07:12:50;;;;;;;15.70;8.50;;;;;;;;;;6221583;23;20024;-93
2024/03/21 07:15:16;;;;;;;17.40;8.65;;;;;;;;;;6220862;23;20023;-95
2024/03/21 07:17:44;;;;;;;18.42;7.75;;;;;;;;;;6221910;23;20028;-94
2024/03/21 07:20:10;;;;;;;14.05;7.50;;;;;;;;;;6246494;23;20449;-94
2024/03/21 07:22:38;;;;;;;11.73;7.63;;;;;;;;;;6220731;23;20020;-94
2024/03/21 07:25:06;;;;;;;8.60;7.63;;;;;;;;;;6220567;23;20515;-95
2024/03/21 07:27:33;;;;;;;14.23;7.20;;;;;;;;;;6221446;23;20026;-94
2024/03/21 07:29:59;;;;;;;11.32;6.55;;;;;;;;;;6247100;23;20016;-93
2024/03/21 07:32:25;;;;;;;14.27;6.78;;;;;;;;;;6227616;23;20024;-94
2024/03/21 07:34:51;;;;;;;16.55;7.32;;;;;;;;;;6249556;23;20027;-94
2024/03/21 07:37:18;;;;;;;14.18;6.82;;;;;;;;;;6249037;23;20449;-95
2024/03/21 07:39:44;;;;;;;13.23;6.82;;;;;;;;;;6223301;23;20028;-94
2024/03/21 07:42:10;;;;;;;9.38;6.30;;;;;;;;;;6220548;23;20020;-94
2024/03/21 07:44:37;;;;;;;13.75;6.50;;;;;;;;;;6245559;23;20024;-94
2024/03/21 07:47:03;;;;;;;9.82;5.82;;;;;;;;;;6246146;23;20016;-94
2024/03/21 07:49:29;;;;;;;7.93;5.88;;;;;;;;;;6220440;23;20020;-94
2024/03/21 07:52:00;;;;;;;8.07;5.38;;;;;;;;;;6220800;23;20036;-94
2024/03/21 07:54:29;;;;;;;15.38;6.05;;;;;;;;;;6220620;23;20028;-94
2024/03/21 07:56:57;;;;;;;12.30;5.50;;;;;;;;;;6221314;23;20024;-93
2024/03/21 07:59:24;;;;;;;6.15;5.40;;;;;;;;;;6222268;23;20031;-94
2024/03/21 08:01:50;;;;;;;8.15;5.13;;;;;;;;;;6249453;23;20016;-93
2024/03/21 08:04:17;;;;;;;6.95;5.20;;;;;;;;;;6265118;23;20019;-94
2024/03/21 08:06:43;;;;;;;13.65;7.05;;;;;;;;;;6229223;23;20027;-94
2024/03/21 08:09:09;;;;;;;14.43;6.00;;;;;;;;;;6245191;23;20027;-95
2024/03/21 08:11:36;;;;;;;14.30;6.78;;;;;;;;;;6245668;23;20061;-94
2024/03/21 08:14:02;;;;;;;15.55;6.18;;;;;;;;;;6245068;23;20020;-94
2024/03/21 08:16:29;;;;;;;22.10;6.35;;;;;;;;;;6245894;23;20016;-94
2024/03/21 08:18:55;;;;;;;28.40;6.55;;;;;;;;;;6244996;23;20024;-94
2024/03/21 08:21:21;;;;;;;29.77;7.63;;;;;;;;;;6219613;23;20031;-93
2024/03/21 08:23:50;;;;;;;21.48;6.78;;;;;;;;;;6220613;23;20020;-94
2024/03/21 08:26:18;;;;;;;12.98;6.05;;;;;;;;;;6219976;23;20027;-94
2024/03/21 08:28:44;;;;;;;12.20;5.85;;;;;;;;;;6220184;23;20341;-91
2024/03/21 08:31:10;;;;;;;20.00;6.25;;;;;;;;;;6245091;23;20040;-93
2024/03/21 08:33:37;;;;;;;20.80;6.65;;;;;;;;;;6219646;23;20020;-93
2024/03/21 08:36:03;;;;;;;16.25;6.22;;;;;;;;;;6245991;23;20051;-91
2024/03/21 08:38:33;;;;;;;11.70;5.35;;;;;;;;;;6244835;23;20020;-92
2024/03/21 08:40:59;;;;;;;11.95;6.47;;;;;;;;;;6220056;23;20457;-90
2024/03/21 08:43:25;;;;;;;9.23;5.40;;;;;;;;;;6244983;23;20326;-90
2024/03/21 08:45:53;;;;;;;12.10;5.70;;;;;;;;;;6245277;23;20341;-90
2024/03/21 08:48:19;;;;;;;14.98;5.55;;;;;;;;;;6220072;23;20020;-90
2024/03/21 08:50:47;;;;;;;8.80;5.40;;;;;;;;;;6253447;23;20028;-93
2024/03/21 08:53:17;;;;;;;12.55;5.97;;;;;;;;;;6220012;23;20467;-91
2024/03/21 08:55:43;;;;;;;17.15;7.47;;;;;;;;;;6219675;23;20032;-91
2024/03/21 08:58:14;;;;;;;18.90;5.43;;;;;;;;;;6245061;23;20449;-90
2024/03/21 09:00:40;;;;;;;14.57;5.40;;;;;;;;;;6219593;23;20020;-91
2024/03/21 09:03:11;;;;;;;15.48;7.60;;;;;;;;;;6219014;23;20024;-90
2024/03/21 09:05:37;;;;;;;12.50;6.45;;;;;;;;;;6220175;23;20027;-90
2024/03/21 09:08:04;;;;;;;13.30;5.53;;;;;;;;;;6245305;23;20046;-91
2024/03/21 09:10:30;;;;;;;13.95;5.55;;;;;;;;;;6222253;23;20016;-90
2024/03/21 09:12:56;;;;;;;20.85;5.70;;;;;;;;;;6222240;23;20020;-90
2024/03/21 09:15:22;;;;;;;14.18;5.88;;;;;;;;;;6221584;23;20518;-90
2024/03/21 09:17:49;;;;;;;12.93;5.88;;;;;;;;;;6254350;23;20020;-90
2024/03/21 09:20:15;;;;;;;10.85;6.05;;;;;;;;;;6237939;23;20016;-90
2024/03/21 09:22:41;;;;;;;15.43;7.28;;;;;;;;;;6222489;23;20020;-91
2024/03/21 09:25:07;;;;;;;10.18;5.68;;;;;;;;;;6221416;23;20016;-90
2024/03/21 09:27:34;;;;;;;10.93;5.68;;;;;;;;;;6221561;23;20024;-90
2024/03/21 09:30:01;;;;;;;13.65;7.93;;;;;;;;;;6221398;23;20024;-90
2024/03/21 09:32:27;;;;;;;9.60;5.68;;;;;;;;;;6221618;23;20020;-90
2024/03/21 09:34:54;;;;;;;13.65;5.13;;;;;;;;;;6221486;23;20034;-90
2024/03/21 09:37:24;;;;;;;7.55;4.60;;;;;;;;;;6221523;23;20020;-90
2024/03/21 09:39:50;;;;;;;10.30;3.85;;;;;;;;;;6221155;23;20020;-90
2024/03/21 09:42:17;;;;;;;8.13;5.15;;;;;;;;;;6220673;23;20016;-90
2024/03/21 09:44:46;;;;;;;17.88;7.07;;;;;;;;;;6221327;23;20404;-89
2024/03/21 09:47:14;;;;;;;11.77;6.43;;;;;;;;;;6221494;23;20020;-89
2024/03/21 09:49:40;;;;;;;9.35;5.00;;;;;;;;;;6246940;23;20027;-90
2024/03/21 09:52:08;;;;;;;7.43;3.72;;;;;;;;;;6246921;23;20341;-90
2024/03/21 09:54:35;;;;;;;5.00;3.70;;;;;;;;;;6221144;23;20024;-89
2024/03/21 09:57:03;;;;;;;4.53;3.05;;;;;;;;;;6220806;23;20020;-90
2024/03/21 09:59:30;;;;;;;4.47;3.63;;;;;;;;;;6246958;23;20020;-90
2024/03/21 10:01:56;;;;;;;4.82;4.00;;;;;;;;;;6246569;23;20024;-89
2024/03/21 10:04:23;;;;;;;4.43;3.35;;;;;;;;;;6221172;23;20366;-90
2024/03/21 10:06:49;;;;;;;5.18;3.40;;;;;;;;;;6247038;23;20020;-89
2024/03/21 10:09:16;;;;;;;7.13;3.28;;;;;;;;;;6221123;23;20237;-89
2024/03/21 10:11:42;;;;;;;6.13;3.63;;;;;;;;;;6221431;23;20344;-90
2024/03/21 10:14:11;;;;;;;3.13;2.80;;;;;;;;;;6221113;23;20020;-89
2024/03/21 10:16:37;;;;;;;7.13;3.50;;;;;;;;;;6221625;23;20353;-90
2024/03/21 10:19:04;;;;;;;10.25;3.72;;;;;;;;;;6246718;23;20024;-89
2024/03/21 10:21:30;;;;;;;7.20;4.70;;;;;;;;;;6245888;23;20075;-89
2024/03/21 10:24:03;;;;;;;5.50;4.53;;;;;;;;;;6246303;23;20082;-89
2024/03/21 10:26:30;;;;;;;;;;;;;;;;;;6221609;23;20054;-89
2024/03/21 10:28:56;;;;;;;6.13;5.18;;;;;;;;;;6222381;23;19915;-90
2024/03/21 10:31:23;;;;;;;6.55;5.25;;;;;;;;;;6226246;23;20020;-89
2024/03/21 10:33:58;;;;;;;5.78;5.18;;;;;;;;;;6241006;23;20050;-89
2024/03/21 10:36:24;;;;;;;6.20;5.60;;;;;;;;;;6227885;23;20024;-88
2024/03/21 10:38:50;;;;;;;10.25;7.07;;;;;;;;;;6226407;23;20020;-89
2024/03/21 10:41:22;;;;;;;8.70;6.57;;;;;;;;;;6221068;23;20024;-89
2024/03/21 10:43:54;;;;;;;12.05;8.55;;;;;;;;;;6221528;23;20020;-89
2024/03/21 10:46:23;;;;;;;12.65;8.80;;;;;;;;;;6221616;23;20023;-89
2024/03/21 10:48:50;;;;;;;19.00;9.98;;;;;;;;;;6246252;23;20024;-89
2024/03/21 10:51:19;;;;;;;10.48;8.65;;;;;;;;;;6220614;23;20016;-90
2024/03/21 10:53:53;;;;;;;14.77;11.90;;;;;;;;;;6220537;23;20023;-88
2024/03/21 10:56:22;;;;;;;20.95;13.57;;;;;;;;;;6246265;23;20039;-89
2024/03/21 10:58:49;;;;;;;20.35;14.73;;;;;;;;;;6245834;23;20031;-90
2024/03/21 11:01:15;;;;;;;23.60;16.65;;;;;;;;;;6220643;23;20022;-89
2024/03/21 11:03:51;;;;;;;24.73;16.42;;;;;;;;;;6220160;23;20020;-89
2024/03/21 11:06:22;;;;;;;25.02;18.20;;;;;;;;;;6245656;23;20338;-89
2024/03/21 11:08:55;;;;;;;24.63;18.52;;;;;;;;;;6220848;23;20026;-92
2024/03/21 11:11:21;;;;;;;30.05;20.20;;;;;;;;;;6246314;23;20035;-92
2024/03/21 11:13:47;;;;;;;32.28;21.55;;;;;;;;;;6245597;23;20020;-87
2024/03/21 11:16:14;;;;;;;32.90;22.67;;;;;;;;;;6220230;23;20028;-86
2024/03/21 11:18:41;;;;;;;41.80;31.23;;;;;;;;;;6220048;23;20357;-89
2024/03/21 11:21:12;;;;;;;34.78;25.70;;;;;;;;;;6220333;23;20016;-89
2024/03/21 11:23:39;;;;;;;40.67;28.83;;;;;;;;;;6220290;23;20020;-86
2024/03/21 11:26:07;;;;;;;38.50;27.67;;;;;;;;;;6245624;23;20028;-89
2024/03/21 11:28:34;;;;;;;44.78;29.73;;;;;;;;;;6220371;23;20016;-86
2024/03/21 11:31:02;;;;;;;43.90;30.40;;;;;;;;;;6244551;23;20020;-87
2024/03/21 11:33:31;;;;;;;51.10;30.50;;;;;;;;;;6220321;23;20031;-87
2024/03/21 11:35:58;;;;;;;46.05;30.67;;;;;;;;;;6245346;23;20024;-87
2024/03/21 11:38:26;;;;;;;49.72;32.17;;;;;;;;;;6219629;23;20032;-86
2024/03/21 11:40:53;;;;;;;50.05;32.50;;;;;;;;;;6220079;23;20345;-89
2024/03/21 11:43:20;;;;;;;48.22;32.95;;;;;;;;;;6219344;23;20353;-87
2024/03/21 11:45:47;;;;;;;44.17;30.98;;;;;;;;;;6220349;23;20042;-86
2024/03/21 11:48:13;;;;;;;46.38;31.73;;;;;;;;;;6246652;23;20020;-87
2024/03/21 11:50:39;;;;;;;37.63;29.00;;;;;;;;;;6220312;23;20361;-86
2024/03/21 11:53:06;;;;;;;46.72;31.25;;;;;;;;;;6220293;23;20024;-87
2024/03/21 11:55:32;;;;;;;44.97;31.90;;;;;;;;;;6245145;23;20016;-86
2024/03/21 11:57:59;;;;;;;37.88;27.67;;;;;;;;;;6219185;23;20054;-86
2024/03/21 12:00:25;;;;;;;43.15;29.77;;;;;;;;;;6245317;23;20400;-86
2024/03/21 12:02:52;;;;;;;37.72;27.73;;;;;;;;;;6220188;23;20070;-86
2024/03/21 12:05:19;;;;;;;38.75;27.15;;;;;;;;;;6219983;23;20027;-86
2024/03/21 12:07:46;;;;;;;41.38;28.20;;;;;;;;;;6219958;23;20051;-87
2024/03/21 12:10:13;;;;;;;38.53;28.17;;;;;;;;;;6219723;23;20024;-87
2024/03/21 12:12:39;;;;;;;31.35;23.08;;;;;;;;;;6219509;23;20444;-87
2024/03/21 12:15:06;;;;;;;32.55;22.45;;;;;;;;;;6219926;23;20054;-88
2024/03/21 12:17:33;;;;;;;34.72;22.42;;;;;;;;;;6221319;23;20020;-88
2024/03/21 12:19:59;;;;;;;33.47;23.40;;;;;;;;;;6245091;23;20054;-87
2024/03/21 12:22:26;;;;;;;29.67;21.33;;;;;;;;;;6245774;23;20365;-87
2024/03/21 12:24:53;;;;;;;29.48;22.55;;;;;;;;;;6220106;23;20357;-88
2024/03/21 12:27:19;;;;;;;38.80;22.90;;;;;;;;;;6219737;23;20385;-88
2024/03/21 12:29:47;;;;;;;36.63;23.13;;;;;;;;;;6220347;23;20024;-88
2024/03/21 12:32:14;;;;;;;35.88;23.92;;;;;;;;;;6219901;23;20445;-89
2024/03/21 12:34:42;;;;;;;31.42;21.70;;;;;;;;;;6219945;23;20031;-88
2024/03/21 12:37:12;;;;;;;32.92;24.00;;;;;;;;;;6220073;23;20016;-88
2024/03/21 12:39:39;;;;;;;31.95;23.35;;;;;;;;;;6219683;23;20042;-89
2024/03/21 12:42:15;;;;;;;28.35;20.65;;;;;;;;;;6245530;23;20073;-90
2024/03/21 12:44:41;;;;;;;31.52;21.08;;;;;;;;;;6246667;23;20075;-89
2024/03/21 12:47:08;;;;;;;31.20;20.45;;;;;;;;;;6247307;23;20019;-88
2024/03/21 12:49:35;;;;;;;32.60;22.42;;;;;;;;;;6222052;23;20016;-89
2024/03/21 12:52:01;;;;;;;27.55;22.13;;;;;;;;;;6221828;23;20027;-89
2024/03/21 12:54:27;;;;;;;28.83;20.75;;;;;;;;;;6222219;23;20026;-90
2024/03/21 12:56:53;;;;;;;34.38;23.25;;;;;;;;;;6222337;23;20024;-89
2024/03/21 12:59:20;;;;;;;26.40;20.73;;;;;;;;;;6222419;23;20384;-90
2024/03/21 13:01:47;;;;;;;24.73;18.85;;;;;;;;;;6255566;23;20020;-90
2024/03/21 13:04:14;;;;;;;25.05;20.80;;;;;;;;;;6231154;23;20053;-89
2024/03/21 13:06:40;;;;;;;24.90;19.90;;;;;;;;;;6223079;23;20023;-90
2024/03/21 13:09:07;;;;;;;25.92;20.65;;;;;;;;;;6246813;23;20020;-90
2024/03/21 13:11:33;;;;;;;30.00;19.13;;;;;;;;;;6222743;23;20032;-89
2024/03/21 13:14:00;;;;;;;28.35;19.20;;;;;;;;;;6222497;23;20023;-89
2024/03/21 13:16:26;;;;;;;20.15;16.98;;;;;;;;;;6221708;23;20020;-90
2024/03/21 13:18:52;;;;;;;20.65;16.35;;;;;;;;;;6221412;23;20030;-89
2024/03/21 13:21:18;;;;;;;22.65;17.67;;;;;;;;;;6221540;23;20016;-89
2024/03/21 13:23:45;;;;;;;21.35;16.52;;;;;;;;;;6221728;23;20026;-90
2024/03/21 13:26:11;;;;;;;20.10;16.63;;;;;;;;;;6246979;23;20016;-90
2024/03/21 13:28:37;;;;;;;19.40;14.88;;;;;;;;;;6247409;23;20330;-90
2024/03/21 13:31:04;;;;;;;25.55;15.82;;;;;;;;;;6221874;23;20389;-89
2024/03/21 13:33:31;;;;;;;16.27;12.38;;;;;;;;;;6222098;23;20024;-91
2024/03/21 13:35:57;;;;;;;14.90;10.07;;;;;;;;;;6221241;23;20020;-91
2024/03/21 13:38:26;;;;;;;11.50;9.50;;;;;;;;;;6221679;23;20033;-90
2024/03/21 13:40:53;;;;;;;11.80;8.80;;;;;;;;;;6222116;23;20016;-90
2024/03/21 13:43:20;;;;;;;11.52;8.50;;;;;;;;;;6247195;23;20078;-90
2024/03/21 13:45:54;;;;;;;11.80;9.43;;;;;;;;;;6221825;23;20020;-91
2024/03/21 13:48:22;;;;;;;12.98;9.32;;;;;;;;;;6221724;23;20024;-90
2024/03/21 13:50:48;;;;;;;11.38;8.98;;;;;;;;;;6222783;23;20027;-90
2024/03/21 13:53:16;;;;;;;12.98;10.15;;;;;;;;;;6221142;23;20024;-90
2024/03/21 13:55:42;;;;;;;11.52;9.88;;;;;;;;;;6221504;23;20457;-90
2024/03/21 13:58:09;;;;;;;12.15;9.82;;;;;;;;;;6221423;23;20024;-91
2024/03/21 14:00:38;;;;;;;11.55;9.27;;;;;;;;;;6249104;23;20023;-89
2024/03/21 14:03:06;;;;;;;17.83;11.00;;;;;;;;;;6229328;23;20020;-90
2024/03/21 14:05:32;;;;;;;15.05;10.23;;;;;;;;;;6230421;23;20016;-90
2024/03/21 14:07:58;;;;;;;13.98;9.93;;;;;;;;;;6225623;23;20016;-91
2024/03/21 14:10:25;;;;;;;14.70;9.70;;;;;;;;;;6223398;23;20028;-90
2024/03/21 14:12:52;;;;;;;12.93;9.30;;;;;;;;;;6250284;23;20020;-90
2024/03/21 14:15:18;;;;;;;11.43;9.10;;;;;;;;;;6230392;23;20016;-90
2024/03/21 14:17:44;;;;;;;12.10;8.35;;;;;;;;;;6259499;23;20035;-90
2024/03/21 14:20:11;;;;;;;8.82;7.85;;;;;;;;;;6250861;23;20024;-90
2024/03/21 14:22:40;;;;;;;8.32;7.20;;;;;;;;;;6250238;23;20021;-91
2024/03/21 14:25:08;;;;;;;8.30;6.90;;;;;;;;;;6225175;23;20034;-90
2024/03/21 14:27:35;;;;;;;7.25;6.55;;;;;;;;;;6251038;23;20020;-90
2024/03/21 14:30:08;;;;;;;7.68;6.45;;;;;;;;;;6229179;23;20016;-90
2024/03/21 14:32:42;;;;;;;7.70;6.25;;;;;;;;;;6225553;23;20353;-90